createdAt,value
2022-10-11T00:00:25.051Z,9.74
2022-10-11T00:03:26.914Z,9.82
2022-10-11T00:06:28.768Z,9.79
2022-10-11T00:09:30.770Z,9.76
2022-10-11T00:12:33.220Z,9.79
2022-10-11T00:15:35.245Z,9.83
2022-10-11T00:18:37.956Z,9.79
2022-10-11T00:21:39.822Z,9.75
2022-10-11T00:24:41.683Z,9.75
2022-10-11T00:27:43.508Z,9.79
2022-10-11T00:30:45.277Z,9.76
2022-10-11T00:33:47.508Z,9.77
2022-10-11T00:36:49.544Z,9.78
2022-10-11T00:39:51.375Z,9.70
2022-10-11T00:42:53.105Z,9.69
2022-10-11T00:45:57.822Z,9.62
2022-10-11T00:49:05.534Z,9.68
2022-10-11T00:52:31.937Z,9.60
2022-10-11T00:55:40.905Z,9.59
2022-10-11T00:58:43.644Z,9.62
2022-10-11T01:01:45.769Z,9.52
2022-10-11T01:04:47.681Z,9.51
2022-10-11T01:07:50.871Z,9.47
2022-10-11T01:10:52.710Z,9.41
2022-10-11T01:14:03.786Z,9.28
2022-10-11T01:17:13.567Z,9.35
2022-10-11T01:20:27.396Z,9.35
2022-10-11T01:23:44.432Z,9.39
2022-10-11T01:27:13.732Z,9.36
2022-10-11T01:30:23.263Z,9.34
2022-10-11T01:33:41.390Z,9.28
2022-10-11T01:36:52.108Z,9.30
2022-10-11T01:40:05.308Z,9.16
2022-10-11T01:43:07.148Z,9.25
2022-10-11T01:46:10.347Z,9.27
2022-10-11T01:49:12.226Z,9.27
2022-10-11T01:52:14.340Z,9.23
2022-10-11T01:55:36.285Z,9.21
2022-10-11T01:59:06.494Z,9.06
2022-10-11T02:02:39.147Z,9.08
2022-10-11T02:05:55.779Z,9.14
2022-10-11T02:09:11.980Z,9.08
2022-10-11T02:12:20.779Z,9.05
2022-10-11T02:15:25.352Z,9.06
2022-10-11T02:18:33.468Z,9.03
2022-10-11T02:21:40.414Z,9.07
2022-10-11T02:24:46.240Z,9.07
2022-10-11T02:27:50.496Z,9.02
2022-10-11T02:30:53.734Z,9.09
2022-10-11T02:34:19.419Z,9.01
2022-10-11T02:37:24.751Z,9.06
2022-10-11T02:40:32.678Z,9.05
2022-10-11T02:43:41.661Z,9.04
2022-10-11T02:46:45.431Z,9.04
2022-10-11T02:49:47.316Z,9.00
2022-10-11T02:52:49.216Z,8.88
2022-10-11T02:55:53.108Z,8.96
2022-10-11T02:58:54.830Z,8.94
2022-10-11T03:01:56.631Z,8.96
2022-10-11T03:04:58.469Z,9.01
2022-10-11T03:08:00.235Z,9.05
2022-10-11T03:11:02.042Z,9.11
2022-10-11T03:14:03.867Z,9.05
2022-10-11T03:17:31.176Z,9.03
2022-10-11T03:20:27.530Z,9.07
2022-10-11T03:23:29.353Z,8.98
2022-10-11T03:26:31.111Z,8.96
2022-10-11T03:29:32.882Z,8.98
2022-10-11T03:32:34.966Z,8.96
2022-10-11T03:35:36.684Z,9.00
2022-10-11T03:38:39.590Z,8.92
2022-10-11T03:41:41.233Z,9.01
2022-10-11T03:44:42.997Z,9.10
2022-10-11T03:47:44.792Z,9.05
2022-10-11T03:50:46.512Z,9.06
2022-10-11T03:53:48.310Z,9.06
2022-10-11T03:56:50.125Z,9.04
2022-10-11T03:59:51.947Z,9.02
2022-10-11T04:02:53.786Z,9.03
2022-10-11T04:05:55.560Z,8.95
2022-10-11T04:08:57.368Z,9.00
2022-10-11T04:11:59.219Z,9.09
2022-10-11T04:15:01.052Z,9.04
2022-10-11T04:18:02.878Z,9.06
2022-10-11T04:21:04.950Z,9.01
2022-10-11T04:24:06.931Z,9.10
2022-10-11T04:27:08.692Z,9.11
2022-10-11T04:30:11.329Z,9.02
2022-10-11T04:33:13.136Z,9.04
2022-10-11T04:36:15.023Z,9.05
2022-10-11T04:39:16.902Z,9.01
2022-10-11T04:42:18.648Z,8.98
2022-10-11T04:45:21.617Z,8.94
2022-10-11T04:48:23.380Z,8.99
2022-10-11T04:51:25.660Z,8.96
2022-10-11T04:54:27.453Z,8.97
2022-10-11T04:57:29.227Z,8.97
2022-10-11T05:00:31.094Z,9.01
2022-10-11T05:03:33.412Z,9.08
2022-10-11T05:06:35.277Z,8.93
2022-10-11T05:09:37.147Z,8.86
2022-10-11T05:12:38.985Z,8.99
2022-10-11T05:15:40.702Z,9.02
2022-10-11T05:18:42.508Z,9.06
2022-10-11T05:21:44.410Z,8.96
2022-10-11T05:24:46.192Z,8.92
2022-10-11T05:27:49.011Z,8.91
2022-10-11T05:30:50.883Z,8.97
2022-10-11T05:33:52.615Z,9.02
2022-10-11T08:07:16.415Z,11.15
2022-10-11T08:10:18.361Z,11.60
2022-10-11T08:13:20.400Z,12.26
2022-10-11T08:16:22.275Z,12.74
2022-10-11T08:19:24.103Z,13.18
2022-10-11T08:22:26.041Z,13.30
2022-10-11T08:25:28.004Z,13.63
2022-10-11T08:28:29.927Z,13.49
2022-10-11T08:31:34.379Z,13.05
2022-10-11T08:34:36.268Z,13.03
2022-10-11T08:37:38.135Z,13.01
2022-10-11T08:40:47.348Z,12.55
2022-10-11T08:44:05.952Z,12.65
2022-10-11T08:47:28.828Z,12.64
2022-10-11T08:50:31.027Z,12.64
2022-10-11T08:54:12.927Z,12.70
2022-10-11T08:57:19.544Z,12.58
2022-10-11T09:00:23.633Z,12.73
2022-10-11T09:03:37.065Z,12.73
2022-10-11T09:07:07.569Z,13.02
2022-10-11T09:10:43.837Z,12.89
2022-10-11T09:14:12.500Z,12.86
2022-10-11T09:17:52.155Z,13.09
2022-10-11T09:21:28.357Z,13.08
2022-10-11T09:24:47.769Z,13.18
2022-10-11T09:28:15.360Z,13.33
2022-10-11T09:31:22.628Z,13.48
2022-10-11T09:34:32.547Z,13.49
2022-10-11T09:37:52.865Z,13.50
2022-10-11T09:41:23.591Z,13.32
2022-10-11T09:44:33.609Z,13.30
2022-10-11T09:47:36.149Z,13.25
2022-10-11T09:50:39.878Z,13.32
2022-10-11T09:54:00.664Z,13.07
2022-10-11T09:57:06.083Z,13.34
2022-10-11T10:00:23.713Z,13.37
2022-10-11T10:03:31.958Z,13.34
2022-10-11T10:06:37.333Z,13.51
2022-10-11T10:09:39.535Z,13.73
2022-10-11T10:12:41.551Z,13.85
2022-10-11T10:15:48.468Z,13.97
2022-10-11T10:18:59.787Z,13.88
2022-10-11T10:22:01.756Z,13.86
2022-10-11T10:25:09.449Z,13.68
2022-10-11T10:28:24.318Z,13.76
2022-10-11T10:31:30.920Z,13.75
2022-10-11T10:34:38.968Z,13.84
2022-10-11T10:38:02.123Z,13.94
2022-10-11T10:41:09.859Z,13.86
2022-10-11T10:44:11.815Z,13.86
2022-10-11T10:47:43.258Z,13.88
2022-10-11T10:51:26.540Z,14.06
2022-10-11T10:54:51.219Z,14.24
2022-10-11T10:58:09.728Z,14.53
2022-10-11T11:01:24.526Z,14.40
2022-10-11T11:04:33.086Z,14.36
2022-10-11T11:07:49.646Z,14.42
2022-10-11T11:10:56.020Z,14.51
2022-10-11T11:14:19.804Z,14.30
2022-10-11T11:17:30.647Z,14.39
2022-10-11T11:20:41.214Z,14.43
2022-10-11T11:23:55.206Z,14.38
2022-10-11T11:27:15.505Z,14.31
2022-10-11T11:30:49.415Z,14.24
2022-10-11T11:34:03.163Z,14.33
2022-10-11T11:37:14.562Z,14.46
2022-10-11T11:40:29.157Z,14.57
2022-10-11T11:44:10.066Z,14.51
2022-10-11T11:47:31.454Z,14.60
2022-10-11T11:50:43.864Z,14.83
2022-10-11T11:54:24.589Z,14.87
2022-10-11T11:57:53.380Z,14.81
2022-10-11T12:01:31.595Z,14.76
2022-10-11T12:04:38.839Z,14.75
2022-10-11T12:07:52.167Z,14.71
2022-10-11T12:10:59.252Z,14.62
2022-10-11T12:14:03.775Z,14.61
2022-10-11T12:17:12.904Z,14.57
2022-10-11T12:20:41.398Z,14.46
2022-10-11T12:23:46.547Z,14.41
2022-10-11T12:26:50.243Z,14.23
2022-10-11T12:29:52.004Z,14.25
2022-10-11T12:33:06.770Z,14.22
2022-10-11T12:36:47.181Z,14.26
2022-10-11T12:39:57.384Z,14.29
2022-10-11T12:43:36.443Z,14.22
2022-10-11T12:47:03.876Z,14.27
2022-10-11T12:50:17.986Z,14.20
2022-10-11T12:53:22.381Z,14.25
2022-10-11T12:56:38.044Z,14.33
2022-10-11T12:59:46.812Z,14.28
2022-10-11T13:02:49.714Z,14.22
2022-10-11T13:05:53.709Z,14.33
2022-10-11T13:09:04.254Z,14.36
2022-10-11T13:12:18.408Z,14.50
2022-10-11T13:15:22.706Z,14.30
2022-10-11T13:18:26.207Z,14.36
2022-10-11T13:21:36.290Z,14.39
2022-10-11T13:24:40.124Z,14.51
2022-10-11T13:27:42.501Z,14.44
2022-10-11T13:30:50.321Z,14.44
2022-10-11T13:33:59.140Z,14.44
2022-10-11T13:37:01.032Z,14.61
2022-10-11T13:40:06.808Z,14.32
2022-10-11T13:43:08.877Z,14.30
2022-10-11T13:46:19.757Z,14.28
2022-10-11T13:49:29.193Z,14.17
2022-10-11T13:52:31.156Z,14.19
2022-10-11T13:55:47.858Z,14.08
2022-10-11T13:58:49.947Z,14.20
2022-10-11T14:02:00.177Z,14.20
2022-10-11T14:05:02.055Z,14.08
2022-10-11T14:08:08.323Z,14.14
2022-10-11T14:11:12.309Z,14.17
2022-10-11T14:14:32.556Z,13.88
2022-10-11T14:17:39.493Z,14.18
2022-10-11T14:20:41.833Z,13.93
2022-10-11T14:23:44.509Z,14.05
2022-10-11T14:26:48.761Z,13.97
2022-10-11T14:30:19.866Z,13.96
2022-10-11T14:33:12.950Z,13.77
2022-10-11T14:36:14.823Z,13.74
2022-10-11T14:39:22.416Z,13.69
2022-10-11T14:42:24.231Z,13.51
2022-10-11T14:45:26.153Z,13.45
2022-10-11T14:48:50.391Z,13.31
2022-10-11T14:51:50.566Z,13.39
2022-10-11T14:54:52.361Z,13.33
2022-10-11T14:57:54.375Z,13.27
2022-10-11T15:00:56.215Z,13.32
2022-10-11T15:03:58.016Z,13.20
2022-10-11T15:07:00.367Z,13.03
2022-10-11T15:10:17.155Z,13.08
2022-10-11T15:13:19.602Z,12.97
2022-10-11T15:16:22.142Z,12.87
2022-10-11T15:19:25.559Z,12.75
2022-10-11T15:22:27.862Z,12.71
2022-10-11T15:25:30.484Z,12.69
2022-10-11T15:28:33.205Z,12.68
2022-10-11T15:31:34.867Z,12.45
2022-10-11T15:34:36.613Z,12.51
2022-10-11T15:37:38.399Z,12.54
2022-10-11T15:40:40.695Z,12.45
2022-10-11T15:43:47.108Z,12.47
2022-10-11T15:46:48.876Z,12.36
2022-10-11T15:49:50.623Z,12.42
2022-10-11T15:52:52.425Z,12.37
2022-10-11T15:55:56.194Z,12.31
2022-10-11T15:58:58.470Z,12.28
2022-10-11T16:02:00.270Z,12.24
2022-10-11T16:05:02.081Z,12.22
2022-10-11T16:08:03.990Z,12.21
2022-10-11T16:11:07.959Z,12.16
2022-10-11T16:14:09.801Z,12.16
2022-10-11T16:17:11.696Z,12.18
2022-10-11T16:20:14.412Z,12.15
2022-10-11T16:23:16.226Z,12.08
2022-10-11T16:26:18.077Z,12.02
2022-10-11T16:29:19.897Z,11.90
2022-10-11T16:32:22.906Z,11.86
2022-10-11T16:35:27.883Z,11.78
2022-10-11T16:38:31.938Z,11.72
2022-10-11T16:41:35.091Z,11.65
2022-10-11T16:44:39.492Z,11.63
2022-10-11T17:49:33.332Z,9.37
2022-10-11T17:52:35.116Z,9.99
2022-10-11T17:55:42.684Z,10.38
2022-10-11T17:58:45.239Z,10.63
2022-10-11T18:01:47.804Z,10.80
2022-10-11T18:04:49.631Z,10.88
2022-10-11T18:07:55.276Z,10.95
2022-10-11T18:10:57.073Z,11.01
2022-10-11T18:13:59.086Z,11.12
2022-10-11T18:17:00.884Z,11.16
2022-10-11T18:20:02.939Z,11.21
2022-10-11T18:23:04.912Z,11.23
2022-10-11T18:26:15.111Z,11.18
2022-10-11T18:29:16.829Z,11.16
2022-10-11T18:32:18.581Z,11.25
2022-10-11T18:35:20.435Z,11.26
2022-10-11T18:38:22.242Z,11.25
2022-10-11T18:41:30.653Z,11.30
2022-10-11T18:44:32.899Z,11.29
2022-10-11T18:47:34.679Z,11.40
2022-10-11T18:50:36.519Z,11.40
2022-10-11T18:53:38.632Z,11.40
2022-10-11T18:56:41.515Z,11.44
2022-10-11T18:59:43.277Z,11.49
2022-10-11T19:02:45.098Z,11.51
2022-10-11T19:05:46.939Z,11.52
2022-10-11T19:08:59.392Z,11.48
2022-10-11T19:12:01.288Z,11.55
2022-10-11T19:15:03.298Z,11.38
2022-10-11T19:18:05.151Z,11.46
2022-10-11T19:21:12.671Z,11.36
2022-10-11T19:24:19.129Z,11.45
2022-10-11T19:27:20.942Z,11.51
2022-10-11T19:30:24.756Z,11.50
2022-10-11T19:33:26.512Z,11.49
2022-10-11T19:36:32.608Z,11.48
2022-10-11T19:39:37.494Z,11.49
2022-10-11T19:42:39.321Z,11.50
2022-10-11T19:45:41.193Z,11.42
2022-10-11T19:48:46.409Z,11.42
2022-10-11T19:51:48.207Z,11.46
2022-10-11T19:54:50.045Z,11.48
2022-10-11T19:57:51.766Z,11.43
2022-10-11T20:01:21.298Z,11.45
2022-10-11T20:04:50.447Z,11.43
2022-10-11T20:07:45.076Z,11.35
2022-10-11T20:10:47.553Z,11.33
2022-10-11T20:13:51.987Z,11.32
2022-10-11T20:16:53.827Z,11.29
2022-10-11T20:19:55.695Z,11.27
2022-10-11T20:22:57.517Z,11.26
2022-10-11T20:26:08.957Z,11.20
2022-10-11T20:29:10.735Z,11.20
2022-10-11T20:32:12.489Z,11.21
2022-10-11T20:35:14.427Z,11.02
2022-10-11T20:38:16.240Z,11.08
2022-10-11T20:41:20.919Z,11.04
2022-10-11T20:44:22.862Z,10.99
2022-10-11T20:47:24.786Z,10.95
2022-10-11T20:50:26.574Z,10.88
2022-10-11T20:53:29.586Z,10.81
2022-10-11T20:56:31.861Z,10.76
2022-10-11T20:59:33.632Z,10.71
2022-10-11T21:02:35.614Z,10.59
2022-10-11T21:05:37.430Z,10.47
2022-10-11T21:08:40.615Z,10.40
2022-10-11T21:11:42.404Z,10.29
2022-10-11T21:14:44.597Z,10.24
2022-10-11T21:17:46.459Z,10.18
2022-10-11T21:20:48.251Z,10.10
2022-10-11T21:23:54.021Z,9.98
2022-10-11T21:27:00.262Z,9.90
2022-10-11T21:30:02.519Z,9.84
2022-10-11T21:33:04.254Z,9.72
2022-10-11T21:36:11.312Z,9.63
2022-10-11T21:39:13.203Z,9.57
2022-10-11T21:42:15.051Z,9.49
2022-10-11T21:45:16.966Z,9.39
2022-10-11T21:48:18.700Z,9.36
2022-10-11T21:51:27.236Z,9.31
2022-10-11T21:54:29.024Z,9.25
2022-10-11T21:57:30.881Z,9.08
2022-10-11T22:00:32.621Z,9.11
2022-10-11T22:03:34.414Z,9.06
2022-10-11T22:06:37.944Z,9.02
2022-10-11T22:09:39.784Z,8.92
2022-10-11T22:12:41.482Z,8.87
2022-10-11T22:15:43.286Z,8.77
2022-10-11T22:18:45.069Z,8.70
2022-10-11T22:21:46.880Z,8.65
2022-10-11T22:24:48.675Z,8.56
2022-10-11T22:27:50.424Z,8.56
2022-10-11T22:30:52.187Z,8.48
2022-10-11T22:33:55.130Z,8.39
2022-10-11T22:36:56.779Z,8.27
2022-10-11T22:39:58.517Z,8.24
2022-10-11T22:43:00.312Z,8.14
2022-10-11T22:46:02.134Z,8.09
2022-10-11T22:49:03.995Z,8.03
2022-10-11T22:52:05.740Z,8.03
2022-10-11T22:55:07.921Z,7.99
2022-10-11T22:58:10.426Z,7.87
2022-10-11T23:01:15.246Z,7.91
2022-10-11T23:04:20.914Z,7.87
2022-10-11T23:07:22.655Z,7.92
2022-10-11T23:10:24.430Z,7.87
2022-10-11T23:13:26.217Z,7.77
2022-10-11T23:16:32.257Z,7.73
2022-10-11T23:19:34.038Z,7.70
2022-10-11T23:22:35.977Z,7.62
2022-10-11T23:25:37.876Z,7.58
2022-10-11T23:28:40.006Z,7.53
2022-10-11T23:31:41.796Z,7.52
2022-10-11T23:34:43.540Z,7.45
2022-10-11T23:37:45.307Z,7.45
2022-10-11T23:40:47.080Z,7.40
2022-10-11T23:43:48.967Z,7.35
2022-10-11T23:46:50.770Z,7.27
2022-10-11T23:49:52.881Z,7.20
2022-10-11T23:52:54.654Z,7.10
2022-10-11T23:55:56.472Z,7.03
2022-10-11T23:58:58.393Z,6.93
